sensor_id;sensor_type;location;lat;lon;timestamp;P1;durP1;ratioP1;P2;durP2;ratioP2
38034;SDS011;23841;48.524;1.342;2023-06-19T00:00:55;8.18;;;3.50;;
38034;SDS011;23841;48.524;1.342;2023-06-19T00:03:21;12.73;;;3.20;;
38034;SDS011;23841;48.524;1.342;2023-06-19T00:05:46;7.43;;;3.60;;
38034;SDS011;23841;48.524;1.342;2023-06-19T00:08:11;6.38;;;3.00;;
38034;SDS011;23841;48.524;1.342;2023-06-19T00:10:37;7.10;;;2.95;;
38034;SDS011;23841;48.524;1.342;2023-06-19T00:13:02;9.32;;;3.92;;
38034;SDS011;23841;48.524;1.342;2023-06-19T00:15:28;6.47;;;3.42;;
38034;SDS011;23841;48.524;1.342;2023-06-19T00:17:55;4.72;;;3.15;;
38034;SDS011;23841;48.524;1.342;2023-06-19T00:20:22;9.02;;;3.53;;
38034;SDS011;23841;48.524;1.342;2023-06-19T00:22:48;8.88;;;3.20;;
38034;SDS011;23841;48.524;1.342;2023-06-19T00:25:17;5.43;;;3.35;;
38034;SDS011;23841;48.524;1.342;2023-06-19T00:27:46;8.77;;;3.33;;
38034;SDS011;23841;48.524;1.342;2023-06-19T00:30:12;7.75;;;3.13;;
38034;SDS011;23841;48.524;1.342;2023-06-19T00:32:37;6.30;;;3.22;;
38034;SDS011;23841;48.524;1.342;2023-06-19T00:35:12;8.63;;;4.55;;
38034;SDS011;23841;48.524;1.342;2023-06-19T00:37:38;5.63;;;3.95;;
38034;SDS011;23841;48.524;1.342;2023-06-19T00:40:04;8.48;;;3.63;;
38034;SDS011;23841;48.524;1.342;2023-06-19T00:42:33;5.43;;;3.05;;
38034;SDS011;23841;48.524;1.342;2023-06-19T00:44:58;9.05;;;3.65;;
38034;SDS011;23841;48.524;1.342;2023-06-19T00:47:24;6.72;;;3.30;;
38034;SDS011;23841;48.524;1.342;2023-06-19T00:49:50;6.53;;;3.30;;
38034;SDS011;23841;48.524;1.342;2023-06-19T00:52:16;8.88;;;3.67;;
38034;SDS011;23841;48.524;1.342;2023-06-19T00:54:42;5.90;;;3.70;;
38034;SDS011;23841;48.524;1.342;2023-06-19T00:57:09;7.43;;;3.55;;
38034;SDS011;23841;48.524;1.342;2023-06-19T00:59:34;9.13;;;3.13;;
38034;SDS011;23841;48.524;1.342;2023-06-19T01:02:01;11.80;;;3.70;;
38034;SDS011;23841;48.524;1.342;2023-06-19T01:04:26;7.82;;;3.88;;
38034;SDS011;23841;48.524;1.342;2023-06-19T01:06:56;9.32;;;3.58;;
38034;SDS011;23841;48.524;1.342;2023-06-19T01:09:36;12.02;;;4.05;;
38034;SDS011;23841;48.524;1.342;2023-06-19T01:12:13;7.38;;;3.22;;
38034;SDS011;23841;48.524;1.342;2023-06-19T01:14:53;9.13;;;3.53;;
38034;SDS011;23841;48.524;1.342;2023-06-19T01:17:22;12.20;;;4.40;;
38034;SDS011;23841;48.524;1.342;2023-06-19T01:19:50;9.48;;;3.88;;
38034;SDS011;23841;48.524;1.342;2023-06-19T01:22:27;7.88;;;4.10;;
38034;SDS011;23841;48.524;1.342;2023-06-19T01:24:53;10.30;;;3.70;;
38034;SDS011;23841;48.524;1.342;2023-06-19T01:27:19;13.27;;;4.18;;
38034;SDS011;23841;48.524;1.342;2023-06-19T01:29:45;9.45;;;3.80;;
38034;SDS011;23841;48.524;1.342;2023-06-19T01:32:13;10.02;;;3.90;;
38034;SDS011;23841;48.524;1.342;2023-06-19T01:34:43;9.35;;;3.90;;
38034;SDS011;23841;48.524;1.342;2023-06-19T01:37:09;8.27;;;3.70;;
38034;SDS011;23841;48.524;1.342;2023-06-19T01:39:36;6.45;;;3.72;;
38034;SDS011;23841;48.524;1.342;2023-06-19T01:42:02;16.20;;;3.78;;
38034;SDS011;23841;48.524;1.342;2023-06-19T01:44:29;7.53;;;3.85;;
38034;SDS011;23841;48.524;1.342;2023-06-19T01:46:55;9.98;;;3.95;;
38034;SDS011;23841;48.524;1.342;2023-06-19T01:49:20;11.38;;;4.22;;
38034;SDS011;23841;48.524;1.342;2023-06-19T01:51:46;6.10;;;3.30;;
38034;SDS011;23841;48.524;1.342;2023-06-19T01:54:11;10.60;;;4.10;;
38034;SDS011;23841;48.524;1.342;2023-06-19T01:56:37;8.73;;;3.92;;
38034;SDS011;23841;48.524;1.342;2023-06-19T01:59:02;15.23;;;3.58;;
38034;SDS011;23841;48.524;1.342;2023-06-19T02:01:28;9.27;;;4.40;;
38034;SDS011;23841;48.524;1.342;2023-06-19T02:03:53;13.35;;;3.88;;
38034;SDS011;23841;48.524;1.342;2023-06-19T02:06:19;12.90;;;4.13;;
38034;SDS011;23841;48.524;1.342;2023-06-19T02:08:46;14.13;;;4.30;;
38034;SDS011;23841;48.524;1.342;2023-06-19T02:11:12;17.42;;;4.63;;
38034;SDS011;23841;48.524;1.342;2023-06-19T02:13:37;18.33;;;4.03;;
38034;SDS011;23841;48.524;1.342;2023-06-19T02:16:03;11.13;;;3.53;;
38034;SDS011;23841;48.524;1.342;2023-06-19T02:18:29;12.13;;;3.60;;
38034;SDS011;23841;48.524;1.342;2023-06-19T02:20:54;14.70;;;3.55;;
38034;SDS011;23841;48.524;1.342;2023-06-19T02:23:19;9.75;;;3.60;;
38034;SDS011;23841;48.524;1.342;2023-06-19T02:25:45;11.18;;;3.85;;
38034;SDS011;23841;48.524;1.342;2023-06-19T02:28:10;12.48;;;3.70;;
38034;SDS011;23841;48.524;1.342;2023-06-19T02:30:35;13.18;;;4.28;;
38034;SDS011;23841;48.524;1.342;2023-06-19T02:33:01;10.80;;;4.45;;
38034;SDS011;23841;48.524;1.342;2023-06-19T02:35:26;17.70;;;3.75;;
38034;SDS011;23841;48.524;1.342;2023-06-19T02:37:52;10.02;;;4.07;;
38034;SDS011;23841;48.524;1.342;2023-06-19T02:40:17;10.60;;;4.22;;
38034;SDS011;23841;48.524;1.342;2023-06-19T02:42:42;8.45;;;3.70;;
38034;SDS011;23841;48.524;1.342;2023-06-19T02:45:08;16.42;;;3.38;;
38034;SDS011;23841;48.524;1.342;2023-06-19T02:47:34;15.70;;;4.00;;
38034;SDS011;23841;48.524;1.342;2023-06-19T02:49:59;10.90;;;3.35;;
38034;SDS011;23841;48.524;1.342;2023-06-19T02:52:26;10.65;;;3.67;;
38034;SDS011;23841;48.524;1.342;2023-06-19T02:54:52;12.10;;;3.78;;
38034;SDS011;23841;48.524;1.342;2023-06-19T02:57:17;7.82;;;3.85;;
38034;SDS011;23841;48.524;1.342;2023-06-19T02:59:43;10.02;;;3.63;;
38034;SDS011;23841;48.524;1.342;2023-06-19T03:02:10;8.40;;;3.83;;
38034;SDS011;23841;48.524;1.342;2023-06-19T03:04:36;11.18;;;3.47;;
38034;SDS011;23841;48.524;1.342;2023-06-19T03:07:02;14.18;;;4.22;;
38034;SDS011;23841;48.524;1.342;2023-06-19T03:09:28;11.10;;;3.17;;
38034;SDS011;23841;48.524;1.342;2023-06-19T03:11:53;10.15;;;4.13;;
38034;SDS011;23841;48.524;1.342;2023-06-19T03:14:19;5.47;;;2.90;;
38034;SDS011;23841;48.524;1.342;2023-06-19T03:16:45;10.07;;;4.13;;
38034;SDS011;23841;48.524;1.342;2023-06-19T03:19:10;7.88;;;3.72;;
38034;SDS011;23841;48.524;1.342;2023-06-19T03:21:35;10.23;;;3.72;;
38034;SDS011;23841;48.524;1.342;2023-06-19T03:24:01;10.88;;;3.30;;
38034;SDS011;23841;48.524;1.342;2023-06-19T03:26:26;7.93;;;2.70;;
38034;SDS011;23841;48.524;1.342;2023-06-19T03:28:52;7.68;;;2.63;;
38034;SDS011;23841;48.524;1.342;2023-06-19T03:31:17;8.70;;;2.78;;
38034;SDS011;23841;48.524;1.342;2023-06-19T03:33:43;4.75;;;2.85;;
38034;SDS011;23841;48.524;1.342;2023-06-19T03:36:08;6.20;;;2.97;;
38034;SDS011;23841;48.524;1.342;2023-06-19T03:38:34;8.43;;;3.38;;
38034;SDS011;23841;48.524;1.342;2023-06-19T03:41:00;4.75;;;3.10;;
38034;SDS011;23841;48.524;1.342;2023-06-19T03:43:25;5.50;;;3.05;;
38034;SDS011;23841;48.524;1.342;2023-06-19T03:45:50;8.52;;;2.55;;
38034;SDS011;23841;48.524;1.342;2023-06-19T03:48:17;6.00;;;2.78;;
38034;SDS011;23841;48.524;1.342;2023-06-19T03:50:43;5.30;;;2.50;;
38034;SDS011;23841;48.524;1.342;2023-06-19T03:53:08;5.18;;;2.50;;
38034;SDS011;23841;48.524;1.342;2023-06-19T03:55:33;5.22;;;2.40;;
38034;SDS011;23841;48.524;1.342;2023-06-19T03:57:59;7.30;;;2.67;;
38034;SDS011;23841;48.524;1.342;2023-06-19T04:00:24;3.97;;;2.47;;
38034;SDS011;23841;48.524;1.342;2023-06-19T04:02:50;4.85;;;2.28;;
38034;SDS011;23841;48.524;1.342;2023-06-19T04:05:15;5.30;;;2.58;;
38034;SDS011;23841;48.524;1.342;2023-06-19T04:07:41;4.13;;;2.55;;
38034;SDS011;23841;48.524;1.342;2023-06-19T04:10:07;8.88;;;2.67;;
38034;SDS011;23841;48.524;1.342;2023-06-19T04:12:33;4.80;;;2.30;;
38034;SDS011;23841;48.524;1.342;2023-06-19T04:14:58;6.03;;;2.47;;
38034;SDS011;23841;48.524;1.342;2023-06-19T04:17:24;7.30;;;2.47;;
38034;SDS011;23841;48.524;1.342;2023-06-19T04:19:49;6.53;;;2.20;;
38034;SDS011;23841;48.524;1.342;2023-06-19T04:22:14;7.57;;;2.08;;
38034;SDS011;23841;48.524;1.342;2023-06-19T04:24:40;3.25;;;2.10;;
38034;SDS011;23841;48.524;1.342;2023-06-19T04:27:05;6.38;;;2.08;;
38034;SDS011;23841;48.524;1.342;2023-06-19T04:29:33;5.38;;;2.63;;
38034;SDS011;23841;48.524;1.342;2023-06-19T04:31:59;4.93;;;2.10;;
38034;SDS011;23841;48.524;1.342;2023-06-19T04:34:24;7.60;;;2.20;;
38034;SDS011;23841;48.524;1.342;2023-06-19T04:36:50;8.35;;;2.58;;
38034;SDS011;23841;48.524;1.342;2023-06-19T04:39:16;4.90;;;2.28;;
38034;SDS011;23841;48.524;1.342;2023-06-19T04:41:44;6.53;;;2.58;;
38034;SDS011;23841;48.524;1.342;2023-06-19T04:44:10;6.72;;;2.50;;
38034;SDS011;23841;48.524;1.342;2023-06-19T04:46:38;3.45;;;2.25;;
38034;SDS011;23841;48.524;1.342;2023-06-19T04:49:05;7.88;;;2.55;;
38034;SDS011;23841;48.524;1.342;2023-06-19T04:51:31;10.35;;;3.20;;
38034;SDS011;23841;48.524;1.342;2023-06-19T04:53:58;7.18;;;2.47;;
38034;SDS011;23841;48.524;1.342;2023-06-19T04:56:26;5.10;;;2.65;;
38034;SDS011;23841;48.524;1.342;2023-06-19T04:58:51;8.57;;;3.17;;
38034;SDS011;23841;48.524;1.342;2023-06-19T05:01:19;8.35;;;3.55;;
38034;SDS011;23841;48.524;1.342;2023-06-19T05:03:50;6.00;;;3.20;;
38034;SDS011;23841;48.524;1.342;2023-06-19T05:06:16;8.48;;;3.35;;
38034;SDS011;23841;48.524;1.342;2023-06-19T05:08:42;6.82;;;2.95;;
38034;SDS011;23841;48.524;1.342;2023-06-19T05:11:07;8.25;;;4.03;;
38034;SDS011;23841;48.524;1.342;2023-06-19T05:13:32;9.40;;;3.38;;
38034;SDS011;23841;48.524;1.342;2023-06-19T05:15:58;4.93;;;3.35;;
38034;SDS011;23841;48.524;1.342;2023-06-19T05:18:23;10.52;;;3.17;;
38034;SDS011;23841;48.524;1.342;2023-06-19T05:20:49;8.02;;;3.50;;
38034;SDS011;23841;48.524;1.342;2023-06-19T05:23:14;11.23;;;3.60;;
38034;SDS011;23841;48.524;1.342;2023-06-19T05:25:39;8.00;;;3.75;;
38034;SDS011;23841;48.524;1.342;2023-06-19T05:28:05;7.25;;;3.85;;
38034;SDS011;23841;48.524;1.342;2023-06-19T05:30:30;6.50;;;3.95;;
38034;SDS011;23841;48.524;1.342;2023-06-19T05:32:56;7.43;;;3.80;;
38034;SDS011;23841;48.524;1.342;2023-06-19T05:35:21;7.32;;;4.00;;
38034;SDS011;23841;48.524;1.342;2023-06-19T05:37:47;8.55;;;4.63;;
38034;SDS011;23841;48.524;1.342;2023-06-19T05:40:12;7.47;;;4.32;;
38034;SDS011;23841;48.524;1.342;2023-06-19T05:42:39;6.10;;;4.32;;
38034;SDS011;23841;48.524;1.342;2023-06-19T05:45:05;7.18;;;4.50;;
38034;SDS011;23841;48.524;1.342;2023-06-19T05:47:33;8.07;;;5.18;;
38034;SDS011;23841;48.524;1.342;2023-06-19T05:49:58;10.93;;;4.80;;
38034;SDS011;23841;48.524;1.342;2023-06-19T05:52:24;9.20;;;4.72;;
38034;SDS011;23841;48.524;1.342;2023-06-19T05:54:50;9.73;;;4.82;;
38034;SDS011;23841;48.524;1.342;2023-06-19T05:57:18;8.27;;;4.72;;
38034;SDS011;23841;48.524;1.342;2023-06-19T05:59:46;6.95;;;5.00;;
38034;SDS011;23841;48.524;1.342;2023-06-19T06:02:12;10.15;;;5.85;;
38034;SDS011;23841;48.524;1.342;2023-06-19T06:04:38;8.00;;;5.55;;
38034;SDS011;23841;48.524;1.342;2023-06-19T06:07:04;8.48;;;5.25;;
38034;SDS011;23841;48.524;1.342;2023-06-19T06:09:29;6.38;;;4.72;;
38034;SDS011;23841;48.524;1.342;2023-06-19T06:11:55;9.00;;;5.05;;
38034;SDS011;23841;48.524;1.342;2023-06-19T06:14:20;9.20;;;5.05;;
38034;SDS011;23841;48.524;1.342;2023-06-19T06:16:46;7.05;;;4.22;;
38034;SDS011;23841;48.524;1.342;2023-06-19T06:19:11;7.30;;;5.18;;
38034;SDS011;23841;48.524;1.342;2023-06-19T06:21:37;6.80;;;4.80;;
38034;SDS011;23841;48.524;1.342;2023-06-19T06:24:02;6.43;;;4.88;;
38034;SDS011;23841;48.524;1.342;2023-06-19T06:26:28;7.28;;;4.78;;
38034;SDS011;23841;48.524;1.342;2023-06-19T06:28:54;7.70;;;4.95;;
38034;SDS011;23841;48.524;1.342;2023-06-19T06:31:21;6.38;;;4.93;;
38034;SDS011;23841;48.524;1.342;2023-06-19T06:33:47;8.48;;;5.35;;
38034;SDS011;23841;48.524;1.342;2023-06-19T06:36:14;7.88;;;5.15;;
38034;SDS011;23841;48.524;1.342;2023-06-19T06:38:40;7.35;;;5.05;;
38034;SDS011;23841;48.524;1.342;2023-06-19T06:41:05;7.40;;;4.50;;
38034;SDS011;23841;48.524;1.342;2023-06-19T06:43:31;8.27;;;5.15;;
38034;SDS011;23841;48.524;1.342;2023-06-19T06:45:56;6.82;;;4.78;;
38034;SDS011;23841;48.524;1.342;2023-06-19T06:48:22;8.40;;;5.47;;
38034;SDS011;23841;48.524;1.342;2023-06-19T06:50:48;6.25;;;4.50;;
38034;SDS011;23841;48.524;1.342;2023-06-19T06:53:13;7.00;;;5.13;;
38034;SDS011;23841;48.524;1.342;2023-06-19T06:55:39;6.68;;;4.95;;
38034;SDS011;23841;48.524;1.342;2023-06-19T06:58:04;11.25;;;5.85;;
38034;SDS011;23841;48.524;1.342;2023-06-19T07:00:30;9.65;;;5.32;;
38034;SDS011;23841;48.524;1.342;2023-06-19T07:02:55;7.00;;;5.20;;
38034;SDS011;23841;48.524;1.342;2023-06-19T07:05:22;7.82;;;4.93;;
38034;SDS011;23841;48.524;1.342;2023-06-19T07:07:47;7.88;;;5.13;;
38034;SDS011;23841;48.524;1.342;2023-06-19T07:10:13;6.70;;;4.80;;
38034;SDS011;23841;48.524;1.342;2023-06-19T07:12:47;8.05;;;4.70;;
38034;SDS011;23841;48.524;1.342;2023-06-19T07:15:13;8.02;;;4.82;;
38034;SDS011;23841;48.524;1.342;2023-06-19T07:17:39;7.70;;;4.65;;
38034;SDS011;23841;48.524;1.342;2023-06-19T07:20:05;7.30;;;5.20;;
38034;SDS011;23841;48.524;1.342;2023-06-19T07:22:31;6.82;;;4.88;;
38034;SDS011;23841;48.524;1.342;2023-06-19T07:24:57;6.30;;;4.63;;
38034;SDS011;23841;48.524;1.342;2023-06-19T07:27:22;6.68;;;4.90;;
38034;SDS011;23841;48.524;1.342;2023-06-19T07:29:52;6.88;;;4.72;;
38034;SDS011;23841;48.524;1.342;2023-06-19T07:32:18;7.85;;;4.47;;
38034;SDS011;23841;48.524;1.342;2023-06-19T07:34:44;8.45;;;4.82;;
38034;SDS011;23841;48.524;1.342;2023-06-19T07:37:10;6.65;;;4.57;;
38034;SDS011;23841;48.524;1.342;2023-06-19T07:39:42;6.63;;;4.32;;
38034;SDS011;23841;48.524;1.342;2023-06-19T07:42:09;8.25;;;5.28;;
38034;SDS011;23841;48.524;1.342;2023-06-19T07:44:35;6.75;;;5.50;;
38034;SDS011;23841;48.524;1.342;2023-06-19T07:47:01;7.43;;;4.88;;
38034;SDS011;23841;48.524;1.342;2023-06-19T07:49:27;8.73;;;5.30;;
38034;SDS011;23841;48.524;1.342;2023-06-19T07:51:52;10.73;;;6.05;;
38034;SDS011;23841;48.524;1.342;2023-06-19T07:54:17;10.23;;;4.90;;
38034;SDS011;23841;48.524;1.342;2023-06-19T07:56:43;7.95;;;5.30;;
38034;SDS011;23841;48.524;1.342;2023-06-19T07:59:08;8.00;;;5.22;;
38034;SDS011;23841;48.524;1.342;2023-06-19T08:01:34;8.10;;;5.38;;
38034;SDS011;23841;48.524;1.342;2023-06-19T08:03:59;9.82;;;6.20;;
38034;SDS011;23841;48.524;1.342;2023-06-19T08:06:24;6.43;;;4.85;;
38034;SDS011;23841;48.524;1.342;2023-06-19T08:08:50;7.07;;;4.93;;
38034;SDS011;23841;48.524;1.342;2023-06-19T08:11:16;7.18;;;5.63;;
38034;SDS011;23841;48.524;1.342;2023-06-19T08:13:42;6.82;;;5.30;;
38034;SDS011;23841;48.524;1.342;2023-06-19T08:16:07;6.88;;;5.53;;
38034;SDS011;23841;48.524;1.342;2023-06-19T08:18:35;6.53;;;5.10;;
38034;SDS011;23841;48.524;1.342;2023-06-19T08:21:00;7.93;;;5.30;;
38034;SDS011;23841;48.524;1.342;2023-06-19T08:23:26;6.18;;;5.05;;
38034;SDS011;23841;48.524;1.342;2023-06-19T08:25:51;7.45;;;5.43;;
38034;SDS011;23841;48.524;1.342;2023-06-19T08:28:17;7.80;;;5.28;;
38034;SDS011;23841;48.524;1.342;2023-06-19T08:30:44;7.15;;;4.63;;
38034;SDS011;23841;48.524;1.342;2023-06-19T08:33:09;9.07;;;4.78;;
38034;SDS011;23841;48.524;1.342;2023-06-19T08:35:35;8.82;;;5.35;;
38034;SDS011;23841;48.524;1.342;2023-06-19T08:38:00;8.18;;;5.10;;
38034;SDS011;23841;48.524;1.342;2023-06-19T08:40:26;7.97;;;5.38;;
38034;SDS011;23841;48.524;1.342;2023-06-19T08:42:51;6.15;;;4.53;;
38034;SDS011;23841;48.524;1.342;2023-06-19T08:45:17;7.25;;;5.10;;
38034;SDS011;23841;48.524;1.342;2023-06-19T08:47:46;8.48;;;5.55;;
38034;SDS011;23841;48.524;1.342;2023-06-19T08:50:13;7.60;;;4.88;;
38034;SDS011;23841;48.524;1.342;2023-06-19T08:52:38;7.47;;;4.88;;
38034;SDS011;23841;48.524;1.342;2023-06-19T08:55:04;9.93;;;5.53;;
38034;SDS011;23841;48.524;1.342;2023-06-19T08:57:49;8.50;;;5.70;;
38034;SDS011;23841;48.524;1.342;2023-06-19T09:00:24;7.37;;;5.23;;
38034;SDS011;23841;48.524;1.342;2023-06-19T09:02:52;8.60;;;5.35;;
38034;SDS011;23841;48.524;1.342;2023-06-19T09:05:23;8.05;;;5.47;;
38034;SDS011;23841;48.524;1.342;2023-06-19T09:07:59;8.45;;;5.78;;
38034;SDS011;23841;48.524;1.342;2023-06-19T09:10:28;7.55;;;5.28;;
38034;SDS011;23841;48.524;1.342;2023-06-19T09:13:00;7.35;;;4.93;;
38034;SDS011;23841;48.524;1.342;2023-06-19T09:15:27;8.73;;;5.13;;
38034;SDS011;23841;48.524;1.342;2023-06-19T09:20:34;7.50;;;5.57;;
38034;SDS011;23841;48.524;1.342;2023-06-19T09:23:01;8.23;;;5.45;;
38034;SDS011;23841;48.524;1.342;2023-06-19T09:25:26;7.90;;;5.30;;
38034;SDS011;23841;48.524;1.342;2023-06-19T09:27:55;5.85;;;4.65;;
38034;SDS011;23841;48.524;1.342;2023-06-19T09:30:21;6.72;;;4.70;;
38034;SDS011;23841;48.524;1.342;2023-06-19T09:32:47;6.05;;;4.80;;
38034;SDS011;23841;48.524;1.342;2023-06-19T09:35:13;7.75;;;4.95;;
38034;SDS011;23841;48.524;1.342;2023-06-19T09:37:39;10.05;;;5.38;;
38034;SDS011;23841;48.524;1.342;2023-06-19T09:40:08;6.85;;;5.10;;
38034;SDS011;23841;48.524;1.342;2023-06-19T09:42:37;6.85;;;4.93;;
38034;SDS011;23841;48.524;1.342;2023-06-19T09:45:10;6.57;;;4.60;;
38034;SDS011;23841;48.524;1.342;2023-06-19T09:50:04;8.57;;;5.13;;
38034;SDS011;23841;48.524;1.342;2023-06-19T09:52:31;8.02;;;4.97;;
38034;SDS011;23841;48.524;1.342;2023-06-19T09:54:57;6.90;;;4.35;;
38034;SDS011;23841;48.524;1.342;2023-06-19T09:57:23;7.25;;;5.15;;
38034;SDS011;23841;48.524;1.342;2023-06-19T09:59:53;8.35;;;4.60;;
38034;SDS011;23841;48.524;1.342;2023-06-19T10:02:21;8.70;;;4.63;;
38034;SDS011;23841;48.524;1.342;2023-06-19T10:04:52;9.07;;;5.07;;
38034;SDS011;23841;48.524;1.342;2023-06-19T10:07:22;6.40;;;4.60;;
38034;SDS011;23841;48.524;1.342;2023-06-19T10:09:55;7.47;;;4.90;;
38034;SDS011;23841;48.524;1.342;2023-06-19T10:12:37;8.10;;;5.05;;
38034;SDS011;23841;48.524;1.342;2023-06-19T10:17:51;8.43;;;4.72;;
38034;SDS011;23841;48.524;1.342;2023-06-19T10:23:05;7.50;;;5.03;;
38034;SDS011;23841;48.524;1.342;2023-06-19T10:25:37;6.10;;;4.35;;
38034;SDS011;23841;48.524;1.342;2023-06-19T10:28:04;6.80;;;4.40;;
38034;SDS011;23841;48.524;1.342;2023-06-19T10:30:44;8.07;;;4.60;;
38034;SDS011;23841;48.524;1.342;2023-06-19T10:33:10;7.68;;;4.82;;
38034;SDS011;23841;48.524;1.342;2023-06-19T10:35:39;7.10;;;4.68;;
38034;SDS011;23841;48.524;1.342;2023-06-19T10:38:06;7.57;;;4.82;;
38034;SDS011;23841;48.524;1.342;2023-06-19T10:40:38;5.72;;;4.18;;
38034;SDS011;23841;48.524;1.342;2023-06-19T10:43:04;7.75;;;4.40;;
38034;SDS011;23841;48.524;1.342;2023-06-19T10:45:29;6.53;;;4.82;;
38034;SDS011;23841;48.524;1.342;2023-06-19T10:47:55;5.90;;;4.40;;
38034;SDS011;23841;48.524;1.342;2023-06-19T10:50:21;7.45;;;4.68;;
38034;SDS011;23841;48.524;1.342;2023-06-19T10:52:48;7.93;;;5.30;;
38034;SDS011;23841;48.524;1.342;2023-06-19T10:55:17;6.32;;;4.78;;
38034;SDS011;23841;48.524;1.342;2023-06-19T10:57:45;7.75;;;4.80;;
38034;SDS011;23841;48.524;1.342;2023-06-19T11:00:21;5.55;;;4.00;;
38034;SDS011;23841;48.524;1.342;2023-06-19T11:02:58;7.35;;;5.05;;
38034;SDS011;23841;48.524;1.342;2023-06-19T11:05:25;6.80;;;4.05;;
38034;SDS011;23841;48.524;1.342;2023-06-19T11:07:54;6.47;;;4.68;;
38034;SDS011;23841;48.524;1.342;2023-06-19T11:10:22;6.10;;;3.95;;
38034;SDS011;23841;48.524;1.342;2023-06-19T11:12:50;6.75;;;4.20;;
38034;SDS011;23841;48.524;1.342;2023-06-19T11:15:18;5.78;;;4.10;;
38034;SDS011;23841;48.524;1.342;2023-06-19T11:17:43;8.48;;;4.32;;
38034;SDS011;23841;48.524;1.342;2023-06-19T11:20:12;5.60;;;4.15;;
38034;SDS011;23841;48.524;1.342;2023-06-19T11:22:39;6.95;;;4.68;;
38034;SDS011;23841;48.524;1.342;2023-06-19T11:25:06;7.72;;;4.38;;
38034;SDS011;23841;48.524;1.342;2023-06-19T11:27:33;5.88;;;4.43;;
38034;SDS011;23841;48.524;1.342;2023-06-19T11:30:01;6.10;;;4.60;;
38034;SDS011;23841;48.524;1.342;2023-06-19T11:32:47;6.18;;;4.22;;
38034;SDS011;23841;48.524;1.342;2023-06-19T11:35:15;5.72;;;4.40;;
38034;SDS011;23841;48.524;1.342;2023-06-19T11:37:41;5.82;;;3.90;;
38034;SDS011;23841;48.524;1.342;2023-06-19T11:40:08;5.43;;;4.15;;
38034;SDS011;23841;48.524;1.342;2023-06-19T11:42:46;6.82;;;4.47;;
38034;SDS011;23841;48.524;1.342;2023-06-19T11:45:13;5.47;;;4.30;;
38034;SDS011;23841;48.524;1.342;2023-06-19T11:47:38;6.38;;;4.32;;
38034;SDS011;23841;48.524;1.342;2023-06-19T11:50:04;6.70;;;4.90;;
38034;SDS011;23841;48.524;1.342;2023-06-19T11:52:31;6.53;;;4.20;;
38034;SDS011;23841;48.524;1.342;2023-06-19T11:54:56;5.72;;;3.90;;
38034;SDS011;23841;48.524;1.342;2023-06-19T11:57:21;6.05;;;4.35;;
38034;SDS011;23841;48.524;1.342;2023-06-19T11:59:47;6.07;;;4.32;;
38034;SDS011;23841;48.524;1.342;2023-06-19T12:02:12;5.13;;;3.92;;
38034;SDS011;23841;48.524;1.342;2023-06-19T12:04:38;8.40;;;4.60;;
38034;SDS011;23841;48.524;1.342;2023-06-19T12:07:03;5.60;;;4.15;;
38034;SDS011;23841;48.524;1.342;2023-06-19T12:09:30;5.97;;;3.97;;
38034;SDS011;23841;48.524;1.342;2023-06-19T12:11:56;6.00;;;4.22;;
38034;SDS011;23841;48.524;1.342;2023-06-19T12:14:24;4.93;;;3.80;;
38034;SDS011;23841;48.524;1.342;2023-06-19T12:16:49;6.25;;;4.20;;
38034;SDS011;23841;48.524;1.342;2023-06-19T12:19:15;6.45;;;4.18;;
38034;SDS011;23841;48.524;1.342;2023-06-19T12:21:41;5.38;;;3.78;;
38034;SDS011;23841;48.524;1.342;2023-06-19T12:24:07;7.07;;;4.03;;
38034;SDS011;23841;48.524;1.342;2023-06-19T12:26:34;6.43;;;4.40;;
38034;SDS011;23841;48.524;1.342;2023-06-19T12:29:03;4.60;;;3.30;;
38034;SDS011;23841;48.524;1.342;2023-06-19T12:31:29;6.15;;;4.53;;
38034;SDS011;23841;48.524;1.342;2023-06-19T12:33:56;5.63;;;4.13;;
38034;SDS011;23841;48.524;1.342;2023-06-19T12:36:21;5.82;;;3.88;;
38034;SDS011;23841;48.524;1.342;2023-06-19T12:38:47;6.25;;;4.25;;
38034;SDS011;23841;48.524;1.342;2023-06-19T12:41:14;8.10;;;4.07;;
38034;SDS011;23841;48.524;1.342;2023-06-19T12:43:39;7.28;;;3.90;;
38034;SDS011;23841;48.524;1.342;2023-06-19T12:46:05;5.65;;;3.95;;
38034;SDS011;23841;48.524;1.342;2023-06-19T12:48:31;6.32;;;3.88;;
38034;SDS011;23841;48.524;1.342;2023-06-19T12:50:58;6.20;;;3.85;;
38034;SDS011;23841;48.524;1.342;2023-06-19T12:53:23;5.20;;;3.60;;
38034;SDS011;23841;48.524;1.342;2023-06-19T12:55:56;5.25;;;3.75;;
38034;SDS011;23841;48.524;1.342;2023-06-19T12:58:22;6.68;;;3.90;;
38034;SDS011;23841;48.524;1.342;2023-06-19T13:00:47;9.65;;;4.47;;
38034;SDS011;23841;48.524;1.342;2023-06-19T13:03:12;6.03;;;3.85;;
38034;SDS011;23841;48.524;1.342;2023-06-19T13:05:38;4.95;;;3.78;;
38034;SDS011;23841;48.524;1.342;2023-06-19T13:08:04;5.05;;;3.60;;
38034;SDS011;23841;48.524;1.342;2023-06-19T13:10:29;6.03;;;3.67;;
38034;SDS011;23841;48.524;1.342;2023-06-19T13:12:54;4.88;;;3.75;;
38034;SDS011;23841;48.524;1.342;2023-06-19T13:15:23;5.43;;;3.78;;
38034;SDS011;23841;48.524;1.342;2023-06-19T13:17:49;7.80;;;4.38;;
38034;SDS011;23841;48.524;1.342;2023-06-19T13:20:14;5.80;;;3.30;;
38034;SDS011;23841;48.524;1.342;2023-06-19T13:22:40;5.40;;;3.78;;
38034;SDS011;23841;48.524;1.342;2023-06-19T13:25:06;5.07;;;3.42;;
38034;SDS011;23841;48.524;1.342;2023-06-19T13:27:32;4.22;;;3.05;;
38034;SDS011;23841;48.524;1.342;2023-06-19T13:29:59;4.72;;;3.40;;
38034;SDS011;23841;48.524;1.342;2023-06-19T13:32:25;4.60;;;3.00;;
38034;SDS011;23841;48.524;1.342;2023-06-19T13:34:51;5.10;;;3.40;;
38034;SDS011;23841;48.524;1.342;2023-06-19T13:37:17;4.40;;;3.28;;
38034;SDS011;23841;48.524;1.342;2023-06-19T13:39:43;4.60;;;3.25;;
38034;SDS011;23841;48.524;1.342;2023-06-19T13:42:08;6.07;;;3.65;;
38034;SDS011;23841;48.524;1.342;2023-06-19T13:44:34;4.57;;;3.30;;
38034;SDS011;23841;48.524;1.342;2023-06-19T13:47:00;4.40;;;3.50;;
38034;SDS011;23841;48.524;1.342;2023-06-19T13:49:25;4.47;;;3.22;;
38034;SDS011;23841;48.524;1.342;2023-06-19T13:51:51;5.50;;;3.30;;
38034;SDS011;23841;48.524;1.342;2023-06-19T13:54:16;4.10;;;3.00;;
38034;SDS011;23841;48.524;1.342;2023-06-19T13:56:42;5.43;;;3.95;;
38034;SDS011;23841;48.524;1.342;2023-06-19T13:59:07;4.47;;;3.13;;
38034;SDS011;23841;48.524;1.342;2023-06-19T14:01:33;6.18;;;3.25;;
38034;SDS011;23841;48.524;1.342;2023-06-19T14:03:59;6.15;;;3.53;;
38034;SDS011;23841;48.524;1.342;2023-06-19T14:06:24;4.65;;;3.58;;
38034;SDS011;23841;48.524;1.342;2023-06-19T14:08:50;4.78;;;3.22;;
38034;SDS011;23841;48.524;1.342;2023-06-19T14:11:19;4.90;;;3.50;;
38034;SDS011;23841;48.524;1.342;2023-06-19T14:13:44;5.13;;;3.58;;
38034;SDS011;23841;48.524;1.342;2023-06-19T14:16:10;5.38;;;3.85;;
38034;SDS011;23841;48.524;1.342;2023-06-19T14:18:35;5.32;;;3.42;;
38034;SDS011;23841;48.524;1.342;2023-06-19T14:21:02;4.05;;;3.08;;
38034;SDS011;23841;48.524;1.342;2023-06-19T14:23:28;4.82;;;3.55;;
38034;SDS011;23841;48.524;1.342;2023-06-19T14:25:53;5.47;;;3.33;;
38034;SDS011;23841;48.524;1.342;2023-06-19T14:28:19;4.95;;;3.50;;
38034;SDS011;23841;48.524;1.342;2023-06-19T14:30:44;4.38;;;3.25;;
38034;SDS011;23841;48.524;1.342;2023-06-19T14:33:10;4.90;;;3.53;;
38034;SDS011;23841;48.524;1.342;2023-06-19T14:35:40;4.55;;;3.03;;
38034;SDS011;23841;48.524;1.342;2023-06-19T14:38:14;4.85;;;3.33;;
38034;SDS011;23841;48.524;1.342;2023-06-19T14:40:41;4.80;;;3.38;;
38034;SDS011;23841;48.524;1.342;2023-06-19T14:43:06;4.35;;;3.30;;
38034;SDS011;23841;48.524;1.342;2023-06-19T14:45:34;4.75;;;3.42;;
38034;SDS011;23841;48.524;1.342;2023-06-19T14:48:00;5.22;;;3.50;;
38034;SDS011;23841;48.524;1.342;2023-06-19T14:50:26;6.25;;;3.40;;
38034;SDS011;23841;48.524;1.342;2023-06-19T14:52:51;4.65;;;3.22;;